Clipper Mills, CA

5:26 PM PDT on July 04, 2015 (GMT -0700)
Ananda Village | | Change Station
CLOSE
Current Station
Personal Weather Station
Location: Nevada City, CA
Elevation: 2661 ft
Nearby Weather Stations

Elev 2661 ft 39.37 °N, 121.05 °W | Updated 20 seconds ago

Clear
Clear
90.3 °F
Feels Like 90 °F
N
0.0
Wind Variable Wind from NNE
Gusts 1.1 mph

Today
High -- | Low -- °F
--% Chance of Precip.
Yesterday
High -- | Low -- °F
Precip. -- in
5:42 AM 8:35 PM
Waning Gibbous, 89% visible
Pressure 29.96 in
Visibility 10.0 miles
Clouds Few 3700 ft
Few 5500 ft
Scattered Clouds 9500 ft
Heat Index 90 °F
Dew Point 60 °F
Humidity 36%
Rainfall 0.00 in
Snow Depth Not available.
UV 4 out of 12
Pollen 5.60 out of 12
Air Quality Not available.
Flu Activity Not available.
METAR KGOO 042355Z AUTO 28005KT 10SM FEW037 FEW055 SCT095 32/13 A2996 RMK AO1

More Conditions Fewer Conditions

Pressure 29.96 in
Visibility 10.0 miles
Clouds Few 3700 ft
Few 5500 ft
Scattered Clouds 9500 ft
Heat Index 90 °F
Dew Point 60 °F
Humidity 36%
Rainfall 0.00 in
Snow Depth Not available.
UV 4 out of 12
Pollen 5.60 out of 12
Air Quality Not available.
Flu Activity Not available.
METAR KGOO 042355Z AUTO 28005KT 10SM FEW037 FEW055 SCT095 32/13 A2996 RMK AO1

More Conditions Fewer Conditions

10-Day Weather Forecast

×

Almanac

Astronomy

Jul. 04, 2015 Rise Set
Actual Time
Civil Twilight
Nautical Twilight
Astronomical Twilight
Moon
Length of Visible Light
Length of Day
Tomorrow will be .
, % of the Moon is Illuminated

Today's Extremes

State Highs State Lows

Community

WunderPhotos

Upload Photos

1,835,120 photos uploaded!

WunderBlogs® & News

Nearby

Air Quality

  Air Quality AQ Index Pollutant
Not available.

Snow Depth

Station Depth Elevation

Earthquake Activity

City Distance Mag. Time & Date
Minimum magnitude displayed is 2.5.

Coastal Water Temperatures

Place Temperature

Stations

Nearby Weather Stations

Station Location Temp. Windchill Dew Point Humidity Wind Precip. Elev Updated Type